Terminal Aerodrome Forecast
Issued by NWS Hastings, NE

Home | Current Version | Previous Version | Text Only | Print | Product List | Glossary On
Versions: 1 2 3 4 5 6 7 8 9 10 11 12 13 14
037
FTUS45 KGID 240523
TAFEAR
TAF
KEAR 240523Z 2406/2506 VRB05KT P6SM SCT200
     FM241000 VRB05KT P6SM BKN110
     FM241300 31007KT P6SM VCSH OVC040
     FM241500 32011G17KT 6SM RA OVC020
     FM250000 34014G20KT P6SM VCSH OVC035
     FM250400 34014G20KT 6SM -RA OVC015=

USA.gov is the U.S. government's official web portal to all federal, state and local government web resources and services.